Time;durP1;ratioP1;P1;durP2;ratioP2;P2;SDS_P1;SDS_P2;PMS_P1;PMS_P2;Temp;Humidity;BMP_temperature;BMP_pressure;BME280_temperature;BME280_humidity;BME280_pressure;Samples;Min_cycle;Max_cycle;Signal;HPM_P1;HPM_P2
2021/12/17 00:05:03;;;;;;;30.03;13.93;;;13.20;59.40;;;;;;5053705;28;20452;-89
2021/12/17 00:07:32;;;;;;;22.43;13.00;;;13.10;59.30;;;;;;5076868;28;20473;-87
2021/12/17 00:10:02;;;;;;;24.73;14.40;;;13.10;59.40;;;;;;5076638;28;20467;-87
2021/12/17 00:12:30;;;;;;;22.23;13.10;;;13.20;59.50;;;;;;5063177;28;20471;-87
2021/12/17 00:14:59;;;;;;;25.00;13.70;;;13.20;59.40;;;;;;5075740;28;20459;-89
2021/12/17 00:17:32;;;;;;;22.43;12.17;;;13.20;59.20;;;;;;5074606;28;20618;-87
2021/12/17 00:50:23;;;;;;;18.17;10.60;;;13.10;59.40;;;;;;5061966;28;20464;-88
2021/12/17 00:52:50;;;;;;;18.77;11.13;;;13.00;59.60;;;;;;5063973;28;20451;-87
2021/12/17 00:55:17;;;;;;;18.93;12.50;;;13.00;59.70;;;;;;5059822;28;20440;-88
2021/12/17 00:57:45;;;;;;;23.97;14.23;;;13.00;59.80;;;;;;5076313;28;20451;-88
2021/12/17 01:00:16;;;;;;;24.07;13.63;;;12.90;59.70;;;;;;5060309;28;20557;-88
2021/12/17 01:02:46;;;;;;;22.10;12.60;;;12.90;59.90;;;;;;5086496;28;20463;-87
2021/12/17 01:05:16;;;;;;;17.13;11.73;;;12.90;59.90;;;;;;5099330;27;20456;-87
2021/12/17 01:07:47;;;;;;;24.90;14.70;;;13.00;59.80;;;;;;5059754;28;20881;-88
2021/12/17 01:10:20;;;;;;;19.33;12.17;;;12.90;59.40;;;;;;5041949;28;20796;-88
2021/12/17 01:13:01;;;;;;;25.00;13.60;;;12.90;59.60;;;;;;5066532;28;20540;-87
2021/12/17 01:15:57;;;;;;;24.50;12.73;;;12.90;59.70;;;;;;5080423;28;20458;-88
2021/12/17 01:18:49;;;;;;;20.40;12.13;;;12.80;60.00;;;;;;5059358;28;20455;-87
2021/12/17 01:21:33;;;;;;;22.93;10.80;;;12.90;59.90;;;;;;5077150;28;21093;-88
2021/12/17 01:24:43;;;;;;;16.20;9.83;;;13.00;59.60;;;;;;5091252;27;20549;-88
2021/12/17 01:36:41;;;;;;;20.57;11.57;;;12.60;59.40;;;;;;5074095;28;21036;-87
2021/12/17 01:42:05;;;;;;;17.97;9.83;;;12.70;59.40;;;;;;5090379;28;20563;-88
2021/12/17 01:44:32;;;;;;;15.67;8.63;;;12.70;59.00;;;;;;5076672;28;20469;-89
2021/12/17 01:47:00;;;;;;;27.50;9.63;;;12.60;59.20;;;;;;5058165;28;20525;-87
2021/12/17 01:55:46;;;;;;;17.93;8.53;;;12.70;59.10;;;;;;5075211;28;20447;-86
2021/12/17 02:00:44;;;;;;;14.90;7.70;;;12.80;58.00;;;;;;5061861;28;20779;-87
2021/12/17 02:03:14;;;;;;;11.97;6.30;;;12.70;58.10;;;;;;5057878;28;20914;-87
2021/12/17 02:05:43;;;;;;;14.63;6.67;;;12.70;58.30;;;;;;5091103;28;20843;-85
2021/12/17 02:08:11;;;;;;;15.60;7.73;;;12.70;58.40;;;;;;5095613;28;21136;-88
2021/12/17 02:19:42;;;;;;;11.63;7.53;;;12.80;58.40;;;;;;5045331;28;20452;-88
2021/12/17 02:22:58;;;;;;;13.97;7.10;;;12.90;58.60;;;;;;5040283;28;20464;-88
2021/12/17 02:31:18;;;;;;;12.13;7.10;;;12.90;58.30;;;;;;5091975;28;20486;-89
2021/12/17 02:33:45;;;;;;;13.90;6.50;;;12.80;58.30;;;;;;5077468;28;20968;-87
2021/12/17 02:36:16;;;;;;;7.77;5.10;;;12.80;58.10;;;;;;5081569;27;20538;-88
2021/12/17 02:38:44;;;;;;;9.10;6.10;;;12.50;58.20;;;;;;5093834;28;20456;-89
2021/12/17 02:47:12;;;;;;;14.00;8.20;;;12.70;58.60;;;;;;5048386;28;21027;-87
2021/12/17 02:49:44;;;;;;;13.70;6.50;;;12.70;58.60;;;;;;5094347;27;20455;-87
2021/12/17 02:52:13;;;;;;;13.47;6.47;;;12.70;58.60;;;;;;5086284;28;20464;-87
2021/12/17 02:54:42;;;;;;;12.27;5.90;;;12.60;58.60;;;;;;5085504;28;20527;-88
2021/12/17 02:57:11;;;;;;;14.53;8.10;;;12.60;58.60;;;;;;5079356;28;20460;-87
2021/12/17 02:59:39;;;;;;;11.93;7.30;;;12.70;58.60;;;;;;5094552;28;20460;-88
2021/12/17 03:02:09;;;;;;;11.13;7.23;;;12.70;58.40;;;;;;5093788;28;21398;-87
2021/12/17 03:04:38;;;;;;;11.90;6.80;;;12.70;58.20;;;;;;5048031;28;20447;-87
2021/12/17 03:07:06;;;;;;;13.73;8.33;;;12.70;58.50;;;;;;5074113;28;20636;-87
2021/12/17 03:09:49;;;;;;;14.77;8.77;;;12.70;58.40;;;;;;5067881;28;20966;-88
2021/12/17 03:12:26;;;;;;;12.10;7.90;;;12.60;58.90;;;;;;5077975;28;20534;-88
2021/12/17 03:15:00;;;;;;;15.57;8.60;;;12.60;58.80;;;;;;5079516;28;20458;-88
2021/12/17 03:17:49;;;;;;;14.50;7.80;;;12.70;58.70;;;;;;5045642;27;20454;-88
2021/12/17 03:25:45;;;;;;;16.93;7.40;;;12.70;58.40;;;;;;5061652;28;20728;-87
2021/12/17 03:28:14;;;;;;;14.20;7.80;;;12.70;58.20;;;;;;5061985;28;20521;-87
2021/12/17 03:30:41;;;;;;;16.40;7.40;;;12.70;58.20;;;;;;5060444;28;20567;-88
2021/12/17 03:33:08;;;;;;;15.00;8.43;;;12.70;58.00;;;;;;5078520;28;20455;-86
2021/12/17 03:35:35;;;;;;;14.60;8.10;;;12.70;57.80;;;;;;5092834;28;20504;-87
2021/12/17 03:38:02;;;;;;;17.53;8.27;;;12.50;57.80;;;;;;5061749;28;20505;-88
2021/12/17 03:40:32;;;;;;;15.03;7.73;;;12.40;58.20;;;;;;5077903;28;20470;-88
2021/12/17 03:43:04;;;;;;;13.90;6.80;;;12.40;58.20;;;;;;5056709;28;20537;-87
2021/12/17 03:45:32;;;;;;;14.80;9.30;;;12.40;57.80;;;;;;5075916;28;20459;-87
2021/12/17 03:48:07;;;;;;;17.40;8.60;;;12.40;57.70;;;;;;5075726;28;20466;-87
2021/12/17 03:50:35;;;;;;;16.70;8.73;;;12.30;57.50;;;;;;5094355;28;20476;-88
2021/12/17 03:53:03;;;;;;;18.90;10.03;;;12.20;57.90;;;;;;5067541;28;20459;-89
2021/12/17 03:55:34;;;;;;;20.17;10.87;;;12.00;58.00;;;;;;5076820;28;20463;-88
2021/12/17 03:58:03;;;;;;;18.60;9.80;;;11.90;58.30;;;;;;5083577;28;20451;-89
2021/12/17 04:00:34;;;;;;;21.30;10.33;;;11.90;58.40;;;;;;5044873;28;20479;-85
2021/12/17 04:03:04;;;;;;;20.77;10.87;;;11.90;58.10;;;;;;5043722;27;20451;-88
2021/12/17 04:05:46;;;;;;;13.57;9.17;;;11.70;58.20;;;;;;5064343;28;20482;-87
2021/12/17 04:08:26;;;;;;;16.83;10.60;;;11.20;58.90;;;;;;5045678;28;21038;-87
2021/12/17 04:11:18;;;;;;;19.70;10.40;;;11.00;59.70;;;;;;5091030;28;20599;-87
2021/12/17 04:13:53;;;;;;;16.80;10.23;;;11.00;59.60;;;;;;5058426;28;20791;-88
2021/12/17 04:16:25;;;;;;;24.00;11.20;;;10.90;59.90;;;;;;5059979;28;20458;-86
2021/12/17 04:18:52;;;;;;;20.83;12.30;;;10.50;60.50;;;;;;5071158;28;20550;-88
2021/12/17 04:21:22;;;;;;;20.83;12.40;;;10.20;60.90;;;;;;5078784;28;20850;-86
2021/12/17 04:23:52;;;;;;;23.00;13.40;;;10.20;61.90;;;;;;5084840;28;20462;-87
2021/12/17 04:26:21;;;;;;;21.37;12.47;;;10.30;62.00;;;;;;5095511;28;20967;-87
2021/12/17 04:28:54;;;;;;;18.30;11.93;;;10.10;63.10;;;;;;5048956;28;20462;-89
2021/12/17 04:31:27;;;;;;;33.53;16.60;;;10.10;62.80;;;;;;5061875;28;20524;-87
2021/12/17 04:33:54;;;;;;;73.40;33.97;;;10.20;62.80;;;;;;5056596;28;20453;-87
2021/12/17 04:36:27;;;;;;;26.77;13.70;;;10.10;62.10;;;;;;5079111;28;20545;-87
2021/12/17 04:38:55;;;;;;;24.70;12.50;;;9.90;63.30;;;;;;5075498;28;20465;-87
2021/12/17 04:44:16;;;;;;;13.40;9.07;;;9.80;62.90;;;;;;5073205;27;20467;-87
2021/12/17 04:46:50;;;;;;;24.00;11.60;;;9.90;63.10;;;;;;5074665;28;20514;-88
2021/12/17 04:57:36;;;;;;;17.30;10.53;;;10.60;59.40;;;;;;5089481;28;20453;-86
2021/12/17 05:00:08;;;;;;;16.63;9.50;;;10.70;58.50;;;;;;5059560;28;20462;-88
2021/12/17 05:02:43;;;;;;;17.10;10.57;;;10.70;57.80;;;;;;5066042;28;20530;-89
2021/12/17 05:05:11;;;;;;;14.87;8.67;;;10.80;58.00;;;;;;5075126;28;20460;-88
2021/12/17 05:07:49;;;;;;;16.97;9.00;;;10.90;57.70;;;;;;5077393;28;20455;-87
2021/12/17 05:10:25;;;;;;;17.03;9.70;;;11.00;57.50;;;;;;5080960;28;20765;-87
2021/12/17 05:18:35;;;;;;;24.20;11.50;;;11.10;57.20;;;;;;5059928;28;20448;-88
2021/12/17 05:21:06;;;;;;;31.30;13.00;;;11.10;57.20;;;;;;5074771;28;20471;-88
2021/12/17 05:23:43;;;;;;;70.43;14.23;;;10.80;58.90;;;;;;5047710;28;20558;-87
2021/12/17 05:26:13;;;;;;;36.23;13.67;;;10.60;59.30;;;;;;5090240;28;20447;-88
2021/12/17 05:28:46;;;;;;;38.23;12.70;;;10.10;61.00;;;;;;5083614;28;20837;-88
2021/12/17 05:31:14;;;;;;;51.43;14.70;;;10.30;61.10;;;;;;5058048;28;21017;-87
2021/12/17 05:33:46;;;;;;;42.57;13.40;;;10.40;60.40;;;;;;5091124;28;20446;-87
2021/12/17 05:36:14;;;;;;;49.23;13.40;;;10.30;61.20;;;;;;5062062;28;20956;-88
2021/12/17 05:38:53;;;;;;;51.83;15.50;;;10.40;61.20;;;;;;5075524;28;20456;-87
2021/12/17 05:41:20;;;;;;;52.73;15.93;;;10.60;60.80;;;;;;5059048;28;20533;-86
2021/12/17 05:44:05;;;;;;;82.37;19.60;;;10.70;60.50;;;;;;5081458;28;20459;-87
2021/12/17 05:46:48;;;;;;;51.03;17.80;;;10.80;60.20;;;;;;5076336;28;20455;-87
2021/12/17 05:49:18;;;;;;;42.10;13.87;;;10.80;60.10;;;;;;5077460;28;20486;-87
2021/12/17 05:51:46;;;;;;;48.17;13.83;;;10.90;60.00;;;;;;5054657;28;20475;-87
2021/12/17 05:54:13;;;;;;;39.83;12.87;;;10.90;59.70;;;;;;5054845;28;20453;-87
2021/12/17 05:56:40;;;;;;;25.17;11.43;;;11.00;59.60;;;;;;5054428;28;20470;-87
2021/12/17 05:59:08;;;;;;;30.43;13.37;;;11.00;60.00;;;;;;5068665;28;20456;-88
2021/12/17 06:01:35;;;;;;;16.20;7.70;;;10.80;59.80;;;;;;5093029;28;20847;-87
2021/12/17 06:04:02;;;;;;;15.23;7.60;;;10.60;58.50;;;;;;5094820;28;20458;-88
2021/12/17 06:06:34;;;;;;;17.80;9.50;;;10.10;58.50;;;;;;5054904;28;20463;-88
2021/12/17 06:09:06;;;;;;;17.13;8.90;;;9.90;60.10;;;;;;5075965;28;20738;-87
2021/12/17 06:11:34;;;;;;;18.07;9.83;;;9.80;60.50;;;;;;5077442;28;20471;-88
2021/12/17 06:14:02;;;;;;;15.47;9.30;;;9.70;61.60;;;;;;5082191;28;20931;-87
2021/12/17 06:16:34;;;;;;;28.30;12.13;;;10.00;60.50;;;;;;5060667;28;20579;-89
2021/12/17 06:19:07;;;;;;;33.07;13.77;;;10.10;60.50;;;;;;5075008;28;20461;-87
2021/12/17 06:21:35;;;;;;;18.67;9.30;;;10.00;60.80;;;;;;5076315;28;20941;-88
2021/12/17 06:24:03;;;;;;;18.70;10.23;;;10.00;60.00;;;;;;5064409;28;20459;-87
2021/12/17 06:26:30;;;;;;;33.23;10.20;;;9.80;62.10;;;;;;5092796;28;21040;-88
2021/12/17 06:28:57;;;;;;;42.10;11.27;;;9.50;62.00;;;;;;5076462;28;21434;-87
2021/12/17 06:31:25;;;;;;;21.47;9.53;;;9.50;61.90;;;;;;5072429;28;20481;-88
2021/12/17 06:33:53;;;;;;;29.33;11.63;;;9.50;62.30;;;;;;5073695;28;20504;-88
2021/12/17 06:36:20;;;;;;;39.77;9.80;;;9.50;62.10;;;;;;5071591;28;20505;-85
2021/12/17 06:38:50;;;;;;;41.37;10.00;;;9.10;63.20;;;;;;5064855;28;20514;-87
2021/12/17 06:41:19;;;;;;;47.63;12.57;;;8.80;64.30;;;;;;5064639;28;20547;-87
2021/12/17 06:43:47;;;;;;;68.53;12.00;;;8.70;65.30;;;;;;5076633;28;20455;-87
2021/12/17 06:46:23;;;;;;;40.87;12.23;;;8.90;65.00;;;;;;5074456;28;20447;-87
2021/12/17 06:48:57;;;;;;;91.03;31.77;;;8.80;65.00;;;;;;5058384;28;20545;-87
2021/12/17 06:58:16;;;;;;;305.07;123.27;;;8.30;66.10;;;;;;5091423;28;20458;-87
2021/12/17 07:01:16;;;;;;;85.90;19.07;;;8.60;65.80;;;;;;5096907;27;20478;-87
2021/12/17 07:10:36;;;;;;;367.97;156.23;;;8.90;63.90;;;;;;5078539;28;20997;-87
2021/12/17 07:21:32;;;;;;;256.73;80.73;;;8.90;63.90;;;;;;5050244;28;20481;-85
2021/12/17 07:32:52;;;;;;;87.20;13.23;;;8.90;63.60;;;;;;5063065;28;20800;-87
2021/12/17 07:35:45;;;;;;;50.73;13.13;;;9.00;63.40;;;;;;5074184;27;20460;-86
2021/12/17 07:41:07;;;;;;;92.57;21.00;;;9.20;61.70;;;;;;5066790;28;21008;-87
2021/12/17 07:43:38;;;;;;;79.80;22.83;;;9.10;61.40;;;;;;5100207;28;20459;-86
2021/12/17 07:46:14;;;;;;;52.03;12.63;;;9.00;62.00;;;;;;5074181;27;20451;-87
2021/12/17 07:48:41;;;;;;;52.37;12.37;;;9.30;62.20;;;;;;5050885;28;20519;-87
2021/12/17 07:51:13;;;;;;;40.83;15.27;;;9.50;61.80;;;;;;5068123;28;20478;-88
2021/12/17 07:54:01;;;;;;;31.73;11.63;;;9.60;61.40;;;;;;5066823;28;20470;-88
2021/12/17 07:56:31;;;;;;;35.57;11.77;;;9.70;60.90;;;;;;5067113;28;20475;-87
2021/12/17 07:59:08;;;;;;;39.43;11.37;;;9.80;60.20;;;;;;5101201;27;20460;-84
2021/12/17 08:01:36;;;;;;;74.33;14.57;;;9.80;59.50;;;;;;5066254;28;20466;-87
2021/12/17 08:04:03;;;;;;;58.63;19.23;;;9.80;59.20;;;;;;5082264;28;21000;-87
2021/12/17 08:06:36;;;;;;;86.23;35.20;;;9.60;59.40;;;;;;5086968;28;20946;-87
2021/12/17 08:09:14;;;;;;;49.37;12.80;;;9.40;60.40;;;;;;5086999;28;20455;-86
2021/12/17 08:11:43;;;;;;;42.07;9.93;;;9.30;61.60;;;;;;5046822;28;21023;-87
2021/12/17 08:14:16;;;;;;;29.70;9.53;;;9.40;61.70;;;;;;5069347;27;20942;-86
2021/12/17 08:16:49;;;;;;;22.93;7.90;;;9.60;61.50;;;;;;5062201;28;20443;-85
2021/12/17 08:25:11;;;;;;;19.10;9.40;;;10.00;59.10;;;;;;5022604;28;20442;-87
2021/12/17 08:27:50;;;;;;;36.07;8.60;;;10.00;58.90;;;;;;5053669;28;20512;-86
2021/12/17 08:30:25;;;;;;;33.27;8.13;;;10.00;58.70;;;;;;5078794;28;20537;-87
2021/12/17 08:33:07;;;;;;;20.90;9.40;;;10.00;59.30;;;;;;5062226;28;20823;-87
2021/12/17 08:35:35;;;;;;;21.10;9.90;;;9.80;60.10;;;;;;5065356;28;20488;-88
2021/12/17 08:38:08;;;;;;;35.37;12.90;;;9.50;61.10;;;;;;5066584;28;20458;-86
2021/12/17 08:40:36;;;;;;;28.83;10.27;;;9.30;61.70;;;;;;5071655;28;20570;-88
2021/12/17 08:43:04;;;;;;;30.33;12.30;;;9.50;61.40;;;;;;5067927;28;20853;-87
2021/12/17 08:45:42;;;;;;;20.73;8.70;;;9.60;61.30;;;;;;5070344;28;20447;-87
2021/12/17 08:48:27;;;;;;;18.43;12.40;;;9.60;60.90;;;;;;5088846;28;21044;-87
2021/12/17 08:51:11;;;;;;;18.87;10.50;;;9.60;60.90;;;;;;5069601;28;20919;-87
2021/12/17 08:53:40;;;;;;;25.33;11.07;;;9.50;61.50;;;;;;5082101;28;20524;-87
2021/12/17 08:56:07;;;;;;;50.70;12.60;;;9.50;61.50;;;;;;5080022;28;20550;-87
2021/12/17 08:58:35;;;;;;;23.87;11.20;;;9.50;61.30;;;;;;5063735;28;20479;-87
2021/12/17 09:01:05;;;;;;;42.27;14.30;;;9.50;61.70;;;;;;5086374;28;20505;-86
2021/12/17 09:03:33;;;;;;;18.93;10.57;;;9.50;61.40;;;;;;5085725;27;20522;-87
2021/12/17 09:06:07;;;;;;;32.93;11.03;;;9.40;61.30;;;;;;5069075;28;20911;-87
2021/12/17 09:08:41;;;;;;;20.03;7.27;;;9.20;61.80;;;;;;5082394;28;21269;-86
2021/12/17 09:11:11;;;;;;;122.30;14.23;;;9.20;62.00;;;;;;5067196;28;20466;-87
2021/12/17 09:13:50;;;;;;;40.23;8.30;;;9.40;61.30;;;;;;5041685;28;20517;-87
2021/12/17 09:16:20;;;;;;;22.30;8.07;;;9.60;61.20;;;;;;5079401;27;20838;-88
2021/12/17 09:18:54;;;;;;;27.37;9.70;;;9.80;60.80;;;;;;5064647;28;20451;-87
2021/12/17 09:21:45;;;;;;;15.53;7.73;;;9.90;60.60;;;;;;5065741;28;20478;-86
2021/12/17 09:24:16;;;;;;;34.90;11.97;;;10.00;59.20;;;;;;5069334;28;20911;-86
2021/12/17 09:27:06;;;;;;;29.60;11.20;;;10.00;59.10;;;;;;5036005;28;20458;-86
2021/12/17 09:29:53;;;;;;;22.50;9.23;;;9.70;61.00;;;;;;5103848;28;20447;-86
2021/12/17 09:32:21;;;;;;;15.23;8.90;;;9.60;61.70;;;;;;5111190;27;20447;-87
2021/12/17 09:34:48;;;;;;;19.13;8.53;;;9.60;61.20;;;;;;5076125;28;20533;-84
2021/12/17 09:37:17;;;;;;;17.93;8.83;;;9.80;60.60;;;;;;5079292;28;20442;-87
2021/12/17 09:39:44;;;;;;;20.60;9.00;;;10.00;59.20;;;;;;5085262;28;20518;-88
2021/12/17 09:42:12;;;;;;;14.40;7.70;;;10.10;58.90;;;;;;5067608;28;20582;-87
2021/12/17 09:44:39;;;;;;;14.83;8.50;;;10.10;58.80;;;;;;5088793;28;20455;-85
2021/12/17 09:47:07;;;;;;;23.23;10.97;;;10.10;59.20;;;;;;5080260;28;20451;-87
2021/12/17 09:49:35;;;;;;;19.10;10.27;;;10.10;58.90;;;;;;5087774;28;20459;-87
2021/12/17 09:52:02;;;;;;;19.47;9.50;;;10.20;59.10;;;;;;5104952;28;20458;-87
2021/12/17 09:54:29;;;;;;;15.20;8.23;;;10.00;59.40;;;;;;5085303;28;20462;-86
2021/12/17 09:56:57;;;;;;;19.87;11.43;;;9.90;61.20;;;;;;5050413;28;20444;-87
2021/12/17 09:59:24;;;;;;;17.60;9.63;;;9.70;61.60;;;;;;5081113;28;20454;-87
2021/12/17 10:01:51;;;;;;;35.00;17.20;;;9.50;62.00;;;;;;5085198;28;21052;-86
2021/12/17 10:04:20;;;;;;;20.90;11.40;;;9.60;62.10;;;;;;5082403;28;20459;-87
2021/12/17 10:06:50;;;;;;;20.57;10.47;;;9.70;61.60;;;;;;5084373;28;20447;-87
2021/12/17 10:09:17;;;;;;;17.93;9.27;;;9.90;61.70;;;;;;5064488;28;20443;-87
2021/12/17 10:12:04;;;;;;;24.20;11.80;;;10.00;59.90;;;;;;5101795;28;20470;-87
2021/12/17 10:14:32;;;;;;;20.00;10.37;;;9.90;60.90;;;;;;5100717;28;20455;-88
2021/12/17 10:17:10;;;;;;;16.73;10.37;;;10.10;59.60;;;;;;5082851;28;20881;-86
2021/12/17 10:19:46;;;;;;;18.70;9.77;;;10.20;59.30;;;;;;5102145;28;20524;-87
2021/12/17 10:22:16;;;;;;;18.47;9.23;;;10.40;59.20;;;;;;5100827;28;20467;-87
2021/12/17 10:24:45;;;;;;;27.93;13.70;;;10.30;58.80;;;;;;5102842;28;20819;-87
2021/12/17 10:27:20;;;;;;;21.63;10.77;;;10.30;59.30;;;;;;5101801;28;20444;-86
2021/12/17 10:29:48;;;;;;;18.67;8.37;;;10.10;59.30;;;;;;5062995;28;20469;-87
2021/12/17 10:32:20;;;;;;;18.60;9.60;;;10.00;60.20;;;;;;5087049;28;20442;-87
2021/12/17 10:35:08;;;;;;;16.63;8.67;;;10.00;60.20;;;;;;5089825;28;20458;-87
2021/12/17 10:37:39;;;;;;;16.20;8.27;;;10.10;60.20;;;;;;5087172;28;20652;-86
2021/12/17 10:40:20;;;;;;;14.70;7.37;;;10.00;60.40;;;;;;5070139;28;20466;-86
2021/12/17 10:42:55;;;;;;;15.50;8.70;;;10.10;60.00;;;;;;5087083;28;20478;-87
2021/12/17 10:45:26;;;;;;;17.77;11.70;;;10.10;59.90;;;;;;5101473;28;20457;-85
2021/12/17 10:48:02;;;;;;;15.73;9.60;;;10.40;59.80;;;;;;5084794;28;20462;-86
2021/12/17 10:50:30;;;;;;;16.63;8.70;;;10.60;59.40;;;;;;5093202;28;20467;-86
2021/12/17 10:53:03;;;;;;;17.77;10.87;;;10.70;59.00;;;;;;5071623;28;20431;-87
2021/12/17 10:55:46;;;;;;;20.50;11.27;;;10.90;58.90;;;;;;5055484;28;20570;-86
2021/12/17 10:58:14;;;;;;;15.13;9.47;;;10.50;58.40;;;;;;5057464;28;20485;-86
2021/12/17 11:00:58;;;;;;;16.83;10.77;;;10.50;59.60;;;;;;5085247;28;20474;-86
2021/12/17 11:03:27;;;;;;;16.80;10.47;;;10.60;59.60;;;;;;5091445;27;20477;-85
2021/12/17 11:05:54;;;;;;;24.07;12.93;;;10.60;59.80;;;;;;5071820;28;20476;-87
2021/12/17 11:08:33;;;;;;;16.20;9.50;;;10.60;59.80;;;;;;5082770;28;20452;-87
2021/12/17 11:11:08;;;;;;;18.27;10.13;;;10.40;59.80;;;;;;5055651;28;20520;-86
2021/12/17 11:13:35;;;;;;;19.60;11.00;;;10.40;59.90;;;;;;5100744;28;20434;-88
2021/12/17 11:16:03;;;;;;;41.23;23.70;;;10.40;60.20;;;;;;5103806;28;20460;-87
2021/12/17 11:18:31;;;;;;;36.80;19.57;;;10.40;60.10;;;;;;5073709;27;20439;-86
2021/12/17 11:20:58;;;;;;;30.27;16.53;;;10.60;60.20;;;;;;5105927;27;20557;-87
2021/12/17 11:23:28;;;;;;;31.63;18.73;;;10.70;59.60;;;;;;5069449;28;20465;-87
2021/12/17 11:25:55;;;;;;;32.20;16.37;;;10.80;59.50;;;;;;5100306;28;20447;-87
2021/12/17 11:28:24;;;;;;;25.87;15.40;;;10.90;59.30;;;;;;5104332;27;20454;-86
2021/12/17 11:30:52;;;;;;;22.63;13.13;;;11.00;59.30;;;;;;5067793;28;20477;-87
2021/12/17 11:33:20;;;;;;;26.03;14.00;;;11.00;59.70;;;;;;5085979;28;20545;-87
2021/12/17 11:35:49;;;;;;;24.87;13.30;;;11.10;59.40;;;;;;5070517;27;20545;-87
2021/12/17 11:38:25;;;;;;;24.50;14.50;;;11.10;59.50;;;;;;5070565;27;20965;-87
2021/12/17 11:40:59;;;;;;;17.03;11.90;;;11.20;59.60;;;;;;5085098;28;20482;-86
2021/12/17 11:43:39;;;;;;;23.27;14.47;;;11.10;59.70;;;;;;5090965;28;20946;-86
2021/12/17 11:46:12;;;;;;;18.97;11.40;;;11.10;59.80;;;;;;5084858;28;20450;-85
2021/12/17 11:48:39;;;;;;;20.73;12.10;;;11.30;59.80;;;;;;5100849;28;20815;-87
2021/12/17 11:51:13;;;;;;;18.53;11.87;;;11.20;60.50;;;;;;5086024;28;20463;-86
2021/12/17 11:54:03;;;;;;;15.73;9.67;;;11.00;60.00;;;;;;5085427;28;20527;-88
2021/12/17 11:56:40;;;;;;;16.73;10.33;;;10.90;59.90;;;;;;5083867;28;20466;-87
2021/12/17 11:59:10;;;;;;;22.10;12.17;;;11.00;59.90;;;;;;5105940;27;20454;-88
2021/12/17 12:02:01;;;;;;;19.30;11.10;;;11.10;59.70;;;;;;5084465;28;20468;-89
2021/12/17 12:04:50;;;;;;;16.97;10.27;;;11.10;59.60;;;;;;5083473;28;20473;-85
2021/12/17 12:07:19;;;;;;;18.70;10.37;;;11.00;59.80;;;;;;5099547;28;20455;-85
2021/12/17 12:09:58;;;;;;;17.80;10.90;;;11.10;59.20;;;;;;5070366;28;20534;-87
2021/12/17 12:12:30;;;;;;;17.93;11.83;;;10.90;59.50;;;;;;5083592;28;20439;-88
2021/12/17 12:15:37;;;;;;;16.37;10.90;;;11.10;59.70;;;;;;5064778;28;20439;-86
2021/12/17 12:18:41;;;;;;;17.40;10.07;;;11.20;59.20;;;;;;5083957;28;20451;-87
2021/12/17 12:21:09;;;;;;;16.97;10.10;;;11.40;58.90;;;;;;5098744;27;20554;-86
2021/12/17 12:23:41;;;;;;;14.70;9.83;;;11.40;58.30;;;;;;5104040;27;20474;-86
2021/12/17 12:26:14;;;;;;;14.10;10.57;;;11.50;58.00;;;;;;5099540;27;20462;-87
2021/12/17 12:28:53;;;;;;;18.33;11.43;;;11.50;57.60;;;;;;5085810;28;20954;-87
2021/12/17 12:31:41;;;;;;;13.53;8.90;;;11.50;57.20;;;;;;5071676;28;20524;-84
2021/12/17 12:34:11;;;;;;;16.70;10.40;;;11.60;56.80;;;;;;5065302;28;20458;-88
2021/12/17 12:36:53;;;;;;;17.90;11.03;;;11.50;55.90;;;;;;5074292;28;20962;-88
2021/12/17 12:39:22;;;;;;;20.83;11.37;;;11.30;56.10;;;;;;5081985;28;20444;-85
2021/12/17 12:41:57;;;;;;;10.67;8.13;;;11.40;56.10;;;;;;5078686;28;20697;-87
2021/12/17 12:45:03;;;;;;;16.80;9.70;;;11.20;55.20;;;;;;5084564;28;20988;-87
2021/12/17 12:47:45;;;;;;;15.57;7.23;;;11.10;55.10;;;;;;5082254;27;20459;-87
2021/12/17 12:50:14;;;;;;;14.53;7.30;;;10.90;55.00;;;;;;5082123;28;20477;-87
2021/12/17 12:52:45;;;;;;;14.70;8.97;;;10.80;55.20;;;;;;5086537;28;20546;-87
2021/12/17 12:55:21;;;;;;;14.53;8.57;;;10.60;55.40;;;;;;5085411;28;20462;-86
2021/12/17 12:57:50;;;;;;;9.10;6.57;;;10.70;55.20;;;;;;5081788;27;20462;-86
2021/12/17 13:00:20;;;;;;;10.50;6.83;;;10.60;55.50;;;;;;5098699;28;20471;-88
2021/12/17 13:02:53;;;;;;;9.30;6.70;;;10.70;55.60;;;;;;5065144;28;20965;-84
2021/12/17 13:05:20;;;;;;;10.43;7.03;;;10.80;55.40;;;;;;5095856;28;20483;-87
2021/12/17 13:07:50;;;;;;;13.20;7.10;;;11.00;55.60;;;;;;5065570;28;20451;-84
2021/12/17 13:10:19;;;;;;;25.27;13.50;;;11.10;55.30;;;;;;5057309;28;20496;-87
2021/12/17 13:13:03;;;;;;;21.23;11.60;;;11.20;54.30;;;;;;5064725;28;20542;-87
2021/12/17 13:15:42;;;;;;;12.27;7.90;;;11.20;54.30;;;;;;5076730;27;20459;-88
2021/12/17 13:21:06;;;;;;;15.47;8.80;;;11.20;54.40;;;;;;5080711;28;20463;-87
2021/12/17 13:23:38;;;;;;;19.30;10.90;;;11.30;54.20;;;;;;5081892;27;20836;-87
2021/12/17 13:26:09;;;;;;;14.63;9.90;;;11.50;54.60;;;;;;5098182;27;20577;-88
2021/12/17 13:28:54;;;;;;;12.23;8.70;;;11.50;54.50;;;;;;5100901;27;20726;-87
2021/12/17 13:31:48;;;;;;;15.07;10.07;;;11.60;54.30;;;;;;5062440;28;20556;-88
2021/12/17 13:34:20;;;;;;;14.23;9.10;;;11.70;54.30;;;;;;5077228;28;20512;-88
2021/12/17 13:36:55;;;;;;;21.30;12.00;;;11.60;53.70;;;;;;5093157;28;20447;-84
2021/12/17 13:39:24;;;;;;;15.67;8.97;;;11.70;54.20;;;;;;5065880;28;21032;-87
2021/12/17 13:41:52;;;;;;;11.80;7.90;;;11.80;54.40;;;;;;5093550;28;20464;-87
2021/12/17 13:44:34;;;;;;;19.33;10.07;;;11.80;54.10;;;;;;5095719;28;21164;-87
2021/12/17 13:47:13;;;;;;;14.47;9.67;;;11.80;53.80;;;;;;5073564;28;20491;-87
2021/12/17 13:49:44;;;;;;;19.00;9.00;;;11.70;53.60;;;;;;5093475;28;20560;-87
2021/12/17 13:52:12;;;;;;;12.17;7.83;;;11.80;53.40;;;;;;5078222;28;20459;-87
2021/12/17 13:54:39;;;;;;;10.10;7.30;;;11.70;53.70;;;;;;5092924;28;20469;-87
2021/12/17 13:57:11;;;;;;;12.90;8.23;;;11.70;53.80;;;;;;5074543;28;20458;-87
2021/12/17 13:59:38;;;;;;;11.07;7.40;;;11.70;53.50;;;;;;5085404;28;20458;-85
2021/12/17 14:02:14;;;;;;;14.90;9.07;;;11.70;53.80;;;;;;5075726;28;20477;-86
2021/12/17 14:04:44;;;;;;;18.30;9.03;;;11.70;53.90;;;;;;5094879;28;20478;-87
2021/12/17 14:07:12;;;;;;;23.53;11.57;;;11.70;54.30;;;;;;5077056;28;20806;-88
2021/12/17 14:09:39;;;;;;;15.73;10.40;;;11.70;54.30;;;;;;5073122;28;20464;-87
2021/12/17 14:12:12;;;;;;;10.40;8.13;;;11.80;54.20;;;;;;5065679;28;20531;-88
2021/12/17 14:14:39;;;;;;;10.33;7.63;;;11.90;54.00;;;;;;5083867;28;20461;-87
2021/12/17 14:17:09;;;;;;;17.83;13.47;;;11.90;54.00;;;;;;5080058;28;20458;-88
2021/12/17 14:19:43;;;;;;;15.63;10.10;;;11.90;53.70;;;;;;5100173;28;20992;-87
2021/12/17 14:22:28;;;;;;;19.87;14.00;;;11.90;53.90;;;;;;5096974;28;20909;-87
2021/12/17 14:24:57;;;;;;;13.90;9.83;;;11.90;53.30;;;;;;5056846;28;20459;-87
2021/12/17 14:27:41;;;;;;;14.03;8.43;;;11.90;53.40;;;;;;5104161;27;20470;-87
2021/12/17 14:30:10;;;;;;;9.33;6.37;;;11.90;53.80;;;;;;5069884;28;20478;-87
2021/12/17 14:32:41;;;;;;;19.27;12.23;;;11.90;53.90;;;;;;5072976;28;20814;-88
2021/12/17 14:35:10;;;;;;;24.47;13.80;;;11.90;53.80;;;;;;5100975;28;20875;-87
2021/12/17 14:37:49;;;;;;;21.90;9.43;;;11.70;53.30;;;;;;5076448;28;20450;-88
2021/12/17 14:40:28;;;;;;;12.07;8.30;;;11.70;53.80;;;;;;5099079;27;20493;-88
2021/12/17 14:42:57;;;;;;;16.10;11.33;;;11.60;53.70;;;;;;5083277;28;20512;-86
2021/12/17 14:45:33;;;;;;;18.70;11.30;;;11.60;54.10;;;;;;5099746;28;20444;-88
2021/12/17 14:48:16;;;;;;;19.50;12.90;;;11.70;54.30;;;;;;5095156;28;20925;-87
2021/12/17 15:02:26;;;;;;;11.30;8.30;;;11.80;53.90;;;;;;5074133;28;20435;-87
2021/12/17 15:04:53;;;;;;;6.80;5.90;;;11.90;54.30;;;;;;5077598;28;20475;-87
2021/12/17 15:07:23;;;;;;;7.50;5.53;;;11.90;54.00;;;;;;5094355;27;20454;-84
2021/12/17 15:09:50;;;;;;;13.17;8.40;;;11.90;54.30;;;;;;5095981;27;20451;-85
2021/12/17 15:12:38;;;;;;;10.73;6.60;;;11.90;53.80;;;;;;5092780;28;20459;-87
2021/12/17 15:15:11;;;;;;;8.13;6.63;;;11.90;54.00;;;;;;5073267;28;20448;-88
2021/12/17 15:17:39;;;;;;;12.00;7.30;;;11.90;54.10;;;;;;5075800;28;20829;-87
2021/12/17 15:20:08;;;;;;;9.00;6.70;;;11.90;54.40;;;;;;5095210;28;21313;-87
2021/12/17 15:22:37;;;;;;;18.80;12.30;;;12.00;54.80;;;;;;5094337;28;20471;-87
2021/12/17 15:25:06;;;;;;;12.50;8.37;;;12.00;54.90;;;;;;5091528;28;20529;-88
2021/12/17 15:27:33;;;;;;;9.37;5.87;;;11.90;54.20;;;;;;5096421;28;20458;-88
2021/12/17 15:30:01;;;;;;;6.43;4.87;;;11.80;53.60;;;;;;5078059;28;20521;-88
2021/12/17 15:32:28;;;;;;;7.93;5.20;;;11.70;53.50;;;;;;5092442;28;20465;-86
2021/12/17 15:34:55;;;;;;;11.00;5.37;;;11.70;53.60;;;;;;5080300;28;20451;-87